Time;durP1;ratioP1;P1;durP2;ratioP2;P2;SDS_P1;SDS_P2;PMS_P1;PMS_P2;Temp;Humidity;BMP_temperature;BMP_pressure;BME280_temperature;BME280_humidity;BME280_pressure;Samples;Min_cycle;Max_cycle;Signal;HPM_P1;HPM_P2
2022/07/13 00:00:40;;;;;;;7.53;2.70;;;;;;;24.26;55.59;101003.16;2105878;28;20040;-73
2022/07/13 00:02:03;;;;;;;6.75;1.92;;;;;;;24.26;55.84;101007.66;2103035;28;20168;-73
2022/07/13 00:03:25;;;;;;;5.82;2.28;;;;;;;24.23;55.76;101005.94;2102989;28;20056;-72
2022/07/13 00:04:48;;;;;;;5.65;2.42;;;;;;;24.23;55.91;101000.56;2103253;28;20608;-72
2022/07/13 00:06:11;;;;;;;47.20;4.38;;;;;;;24.22;55.85;101005.06;2103453;28;20486;-73
2022/07/13 00:07:32;;;;;;;6.93;2.40;;;;;;;24.23;55.99;101008.66;2102938;28;20051;-71
2022/07/13 00:08:55;;;;;;;7.97;2.45;;;;;;;24.23;55.99;101012.22;2094357;28;20086;-72
2022/07/13 00:10:16;;;;;;;5.88;2.20;;;;;;;24.25;55.99;101014.00;2100933;28;20405;-73
2022/07/13 00:11:39;;;;;;;12.85;2.47;;;;;;;24.23;55.80;101012.22;2103013;28;20075;-72
2022/07/13 00:13:00;;;;;;;4.15;2.33;;;;;;;24.21;55.74;101018.63;2094957;28;20052;-72
2022/07/13 00:14:24;;;;;;;3.45;2.10;;;;;;;24.21;56.01;101018.63;2100688;28;20052;-72
2022/07/13 00:15:46;;;;;;;5.97;2.88;;;;;;;24.20;56.14;101015.06;2105249;28;20078;-72
2022/07/13 00:17:09;;;;;;;6.60;2.50;;;;;;;24.17;55.97;101009.72;2103465;28;20048;-72
2022/07/13 00:18:31;;;;;;;8.10;2.63;;;;;;;24.15;55.89;101005.34;2094535;28;20101;-72
2022/07/13 00:19:54;;;;;;;7.80;2.55;;;;;;;24.16;55.91;100993.59;2094604;28;20520;-73
2022/07/13 00:21:17;;;;;;;2.53;2.00;;;;;;;24.13;55.61;100989.19;2111701;28;20112;-73
2022/07/13 00:22:39;;;;;;;6.88;2.28;;;;;;;24.15;55.33;100983.75;2114126;28;20082;-73
2022/07/13 00:24:02;;;;;;;4.75;2.50;;;;;;;24.16;54.64;100989.06;2097272;28;20052;-72
2022/07/13 00:25:23;;;;;;;4.53;1.90;;;;;;;24.19;54.09;100988.13;2109192;28;20096;-72
2022/07/13 00:26:46;;;;;;;4.05;2.35;;;;;;;24.18;53.30;100987.19;2105953;28;20040;-72
2022/07/13 00:28:08;;;;;;;5.82;1.95;;;;;;;24.21;53.19;100991.66;2105501;28;20561;-72
2022/07/13 00:29:31;;;;;;;5.55;1.60;;;;;;;24.20;52.93;100988.06;2102548;28;20089;-72
2022/07/13 00:30:52;;;;;;;8.65;2.45;;;;;;;24.20;52.92;100998.88;2103194;28;20536;-73
2022/07/13 00:32:15;;;;;;;5.20;2.22;;;;;;;24.19;52.86;101001.63;2102936;28;20139;-72
2022/07/13 00:33:37;;;;;;;7.15;2.13;;;;;;;24.19;52.46;101004.31;2103228;28;20528;-72
2022/07/13 00:35:00;;;;;;;7.97;2.08;;;;;;;24.18;52.52;100999.81;2102759;28;20505;-72
2022/07/13 00:36:23;;;;;;;5.07;2.22;;;;;;;24.18;52.70;100999.81;2094432;28;20439;-72
2022/07/13 00:37:44;;;;;;;6.40;2.33;;;;;;;24.18;52.46;100997.13;2100488;28;20060;-72
2022/07/13 00:39:07;;;;;;;6.07;2.20;;;;;;;24.17;52.62;100995.34;2094079;28;20355;-72
2022/07/13 00:40:30;;;;;;;4.55;2.33;;;;;;;24.15;52.73;100984.63;2100506;28;20051;-72
2022/07/13 00:41:51;;;;;;;5.75;2.13;;;;;;;24.13;53.02;100983.81;2094892;28;20596;-72
2022/07/13 00:43:14;;;;;;;2.00;1.50;;;;;;;24.13;52.76;100978.41;2099988;28;20059;-72
2022/07/13 00:44:36;;;;;;;4.20;2.08;;;;;;;24.15;52.96;100978.34;2111451;28;20536;-72
2022/07/13 00:45:59;;;;;;;9.55;2.25;;;;;;;24.15;52.96;100970.25;2105853;28;20043;-72
2022/07/13 00:47:21;;;;;;;5.90;2.20;;;;;;;24.15;53.29;100981.06;2094326;28;20105;-73
2022/07/13 00:48:43;;;;;;;13.60;3.88;;;;;;;24.14;53.41;100969.38;2094680;28;20063;-72
2022/07/13 00:50:08;;;;;;;;;;;;;;;24.13;53.55;100977.53;2094682;28;20703;-73
2022/07/13 00:51:31;;;;;;;5.10;2.40;;;;;;;24.10;53.83;100972.22;2092467;28;19921;-72
2022/07/13 00:52:53;;;;;;;5.22;2.33;;;;;;;24.09;54.50;100984.81;2092086;28;20049;-72
2022/07/13 00:54:18;;;;;;;7.75;2.50;;;;;;;24.09;54.85;100971.34;2100372;28;20060;-73
2022/07/13 00:55:41;;;;;;;6.55;2.45;;;;;;;24.09;55.44;100981.28;2103103;28;20047;-73
2022/07/13 00:57:07;;;;;;;5.00;2.47;;;;;;;24.06;55.82;100979.56;2094763;28;20262;-73
2022/07/13 00:58:30;;;;;;;5.38;2.80;;;;;;;24.04;55.86;100981.44;2092780;28;20052;-72
2022/07/13 00:59:52;;;;;;;7.80;2.40;;;;;;;24.03;56.47;100985.06;2099950;28;20048;-72
2022/07/13 01:01:16;;;;;;;7.18;2.20;;;;;;;24.02;56.90;100980.63;2094600;28;20410;-72
2022/07/13 01:02:39;;;;;;;7.03;3.10;;;;;;;24.01;57.13;100992.34;2100539;28;20112;-73
2022/07/13 01:04:00;;;;;;;4.22;2.17;;;;;;;23.99;57.60;100991.50;2096950;28;20079;-72
2022/07/13 01:05:24;;;;;;;8.02;3.00;;;;;;;23.99;57.83;100990.63;2107509;28;20490;-72
2022/07/13 01:06:46;;;;;;;6.40;2.80;;;;;;;23.97;58.08;100992.50;2097111;28;20293;-72
2022/07/13 01:08:08;;;;;;;8.98;2.63;;;;;;;23.94;58.59;100995.31;2099745;28;20052;-72
2022/07/13 01:09:31;;;;;;;6.57;2.17;;;;;;;23.91;58.90;100987.31;2094601;28;20049;-73
2022/07/13 01:10:55;;;;;;;8.07;2.42;;;;;;;23.90;58.88;100989.13;2100129;28;20036;-72
2022/07/13 01:12:18;;;;;;;7.82;2.42;;;;;;;23.90;58.76;100991.81;2094215;28;20612;-72
2022/07/13 01:13:41;;;;;;;3.75;2.10;;;;;;;23.92;58.33;100989.09;2100335;28;20086;-73
2022/07/13 01:15:03;;;;;;;4.55;2.20;;;;;;;23.93;57.79;100980.94;2102713;28;20040;-72
2022/07/13 01:16:26;;;;;;;6.55;2.40;;;;;;;23.96;57.86;100982.66;2102566;28;20052;-73
2022/07/13 01:17:49;;;;;;;4.88;2.25;;;;;;;23.96;57.83;100967.34;2094748;28;20055;-72
2022/07/13 01:19:12;;;;;;;9.32;2.70;;;;;;;23.95;57.76;100972.81;2092071;28;20048;-73
2022/07/13 01:20:37;;;;;;;9.65;3.30;;;;;;;23.95;57.85;100980.91;2102118;28;20052;-73
2022/07/13 01:22:01;;;;;;;8.70;2.85;;;;;;;23.92;57.72;100979.19;2105729;28;20044;-73
2022/07/13 01:23:26;;;;;;;6.13;2.17;;;;;;;23.91;57.85;100982.81;2094257;28;20048;-73
2022/07/13 01:24:49;;;;;;;4.28;2.10;;;;;;;23.91;57.57;100973.84;2094336;28;20481;-72
2022/07/13 01:26:11;;;;;;;6.47;2.42;;;;;;;23.90;57.61;100981.03;2102798;28;20154;-72
2022/07/13 01:27:36;;;;;;;7.28;2.42;;;;;;;23.90;57.23;100972.06;2102829;28;20048;-72
2022/07/13 01:28:58;;;;;;;7.13;2.22;;;;;;;23.89;57.11;100981.13;2094568;28;20037;-72
2022/07/13 01:30:20;;;;;;;7.28;1.85;;;;;;;23.88;56.98;100991.03;2108377;28;20047;-72
2022/07/13 01:31:42;;;;;;;3.67;2.55;;;;;;;23.89;56.67;100984.69;2105369;28;20098;-72
2022/07/13 01:33:05;;;;;;;5.00;2.60;;;;;;;23.88;56.51;100984.75;2096274;28;20151;-72
2022/07/13 01:34:26;;;;;;;6.35;2.05;;;;;;;23.89;56.50;100986.50;2102943;28;20040;-72
2022/07/13 01:35:48;;;;;;;3.78;2.40;;;;;;;23.89;56.07;100984.69;2094328;28;20061;-74
2022/07/13 01:37:10;;;;;;;4.60;1.95;;;;;;;23.90;55.86;100972.94;2091364;28;20040;-72
2022/07/13 01:38:35;;;;;;;6.35;3.15;;;;;;;23.93;55.68;100978.25;2091658;28;20447;-72
2022/07/13 01:39:56;;;;;;;3.33;2.22;;;;;;;23.92;55.65;100971.09;2100452;28;20143;-73
2022/07/13 01:41:21;;;;;;;4.18;2.50;;;;;;;23.93;55.74;100953.97;2110173;28;20583;-72
2022/07/13 01:42:45;;;;;;;3.08;2.08;;;;;;;23.93;55.78;100963.88;2105251;28;20047;-73
2022/07/13 01:44:08;;;;;;;8.00;2.55;;;;;;;23.92;56.01;100945.94;2097182;28;20055;-73
2022/07/13 01:45:30;;;;;;;6.35;2.72;;;;;;;23.93;56.01;100951.28;2091434;28;20055;-73
2022/07/13 01:46:53;;;;;;;4.68;2.22;;;;;;;23.95;56.42;100962.91;2098249;28;20051;-72
2022/07/13 01:48:16;;;;;;;5.47;2.67;;;;;;;23.96;56.58;100956.53;2102597;28;20481;-73
2022/07/13 01:49:38;;;;;;;3.35;2.42;;;;;;;23.95;57.06;100957.50;2094213;28;20621;-73
2022/07/13 01:51:01;;;;;;;5.40;2.20;;;;;;;23.96;56.88;100943.06;2091586;28;20041;-73
2022/07/13 01:52:23;;;;;;;3.90;2.30;;;;;;;24.00;57.08;100960.03;2099811;28;20383;-73
2022/07/13 01:53:48;;;;;;;7.53;2.00;;;;;;;24.01;56.70;100951.88;2104746;28;20068;-73
2022/07/13 01:55:12;;;;;;;6.57;1.95;;;;;;;24.04;56.66;100948.19;2099208;28;20052;-73
2022/07/13 01:56:36;;;;;;;5.90;2.47;;;;;;;24.07;56.89;100953.47;2111302;28;20742;-74
2022/07/13 01:57:59;;;;;;;5.40;2.55;;;;;;;24.09;56.82;100959.69;2104902;28;20044;-73
2022/07/13 01:59:21;;;;;;;4.75;2.58;;;;;;;24.09;57.09;100963.25;2094198;28;20059;-73
2022/07/13 02:00:44;;;;;;;3.97;2.38;;;;;;;24.11;57.22;100963.19;2090957;28;20642;-73
2022/07/13 02:02:05;;;;;;;4.78;2.50;;;;;;;24.10;57.45;100956.03;2099072;28;20055;-73
2022/07/13 02:03:30;;;;;;;5.28;2.33;;;;;;;24.10;57.44;100953.34;2105024;28;20539;-73
2022/07/13 02:04:54;;;;;;;6.53;2.55;;;;;;;24.10;57.68;100947.94;2098756;28;20040;-72
2022/07/13 02:06:17;;;;;;;5.53;2.08;;;;;;;24.10;57.43;100950.63;2110992;28;20154;-73
2022/07/13 02:07:40;;;;;;;6.15;2.50;;;;;;;24.11;57.40;100952.41;2104705;28;20051;-73
2022/07/13 02:09:05;;;;;;;7.72;2.80;;;;;;;24.12;57.29;100941.56;2104706;28;20074;-74
2022/07/13 02:10:34;;;;;;;4.45;2.85;;;;;;;24.13;57.29;100939.75;2104939;28;20051;-73
2022/07/13 02:11:58;;;;;;;5.60;2.13;;;;;;;24.13;57.21;100945.16;2105042;28;20589;-73
2022/07/13 02:13:21;;;;;;;3.72;2.10;;;;;;;24.12;56.82;100949.66;2104864;28;20074;-73
2022/07/13 02:14:43;;;;;;;5.72;2.10;;;;;;;24.10;56.76;100938.03;2093797;28;20537;-73
2022/07/13 02:16:07;;;;;;;5.38;2.20;;;;;;;24.09;56.07;100943.50;2093960;28;20127;-72
2022/07/13 02:17:29;;;;;;;7.78;2.22;;;;;;;24.07;55.23;100951.66;2091392;28;20093;-73
2022/07/13 02:18:51;;;;;;;5.40;2.40;;;;;;;24.07;54.44;100939.97;2102134;28;20461;-73
2022/07/13 02:20:14;;;;;;;4.28;1.98;;;;;;;24.07;54.09;100942.69;2110921;28;20048;-73
2022/07/13 02:21:36;;;;;;;6.63;2.00;;;;;;;24.08;54.01;100950.72;2096176;28;20447;-73
2022/07/13 02:22:59;;;;;;;4.30;2.50;;;;;;;24.07;53.90;100939.97;2092857;28;20052;-72
2022/07/13 02:24:23;;;;;;;3.28;1.90;;;;;;;24.06;53.81;100957.97;2094670;28;20070;-73
2022/07/13 02:25:46;;;;;;;6.25;2.17;;;;;;;24.06;53.81;100949.00;2099429;28;20095;-73
2022/07/13 02:27:08;;;;;;;5.35;2.92;;;;;;;24.05;53.94;100952.63;2107793;28;20410;-73
2022/07/13 02:28:31;;;;;;;3.75;2.05;;;;;;;24.01;53.94;100933.00;2102221;28;20637;-73
2022/07/13 02:29:52;;;;;;;6.00;2.03;;;;;;;24.01;53.95;100943.78;2107614;28;20044;-73
2022/07/13 02:31:17;;;;;;;6.32;1.88;;;;;;;24.03;54.11;100950.00;2101883;28;20054;-73
2022/07/13 02:32:38;;;;;;;5.90;2.30;;;;;;;24.04;54.15;100946.34;2099957;28;20314;-73
2022/07/13 02:34:01;;;;;;;9.70;2.30;;;;;;;24.04;54.32;100942.78;2099255;28;20044;-73
2022/07/13 02:35:22;;;;;;;3.60;2.13;;;;;;;24.02;54.36;100937.47;2107771;28;20048;-73
2022/07/13 02:36:45;;;;;;;4.60;2.42;;;;;;;23.99;54.21;100937.56;2110505;28;20468;-73
2022/07/13 02:38:06;;;;;;;5.95;2.00;;;;;;;23.98;54.21;100941.19;2110205;28;20167;-73
2022/07/13 02:39:31;;;;;;;3.10;2.53;;;;;;;23.98;54.22;100945.69;2113283;28;20055;-73
2022/07/13 02:40:53;;;;;;;7.50;2.75;;;;;;;23.97;54.22;100935.84;2102459;28;20043;-73
2022/07/13 02:42:15;;;;;;;4.35;2.40;;;;;;;23.95;54.31;100935.03;2104740;28;20414;-72
2022/07/13 02:43:38;;;;;;;3.92;2.05;;;;;;;23.94;54.62;100936.84;2098380;28;20176;-73
2022/07/13 02:45:00;;;;;;;7.25;2.60;;;;;;;23.94;54.56;100930.59;2108215;28;20124;-73
2022/07/13 02:46:22;;;;;;;7.72;2.17;;;;;;;23.95;54.77;100940.44;2110324;28;20042;-73
2022/07/13 02:47:44;;;;;;;2.80;2.10;;;;;;;23.95;54.85;100940.44;2104702;28;20135;-73
2022/07/13 02:49:08;;;;;;;4.13;2.72;;;;;;;23.95;54.76;100941.31;2093986;28;20525;-73
2022/07/13 02:50:31;;;;;;;4.57;2.10;;;;;;;23.93;54.75;100937.78;2091106;28;20048;-73
2022/07/13 02:51:54;;;;;;;7.70;2.70;;;;;;;23.94;54.83;100944.06;2091154;28;20071;-73
2022/07/13 02:53:15;;;;;;;3.85;2.22;;;;;;;23.93;54.88;100939.59;2101754;28;20143;-73
2022/07/13 02:54:39;;;;;;;4.65;2.20;;;;;;;23.92;54.85;100940.53;2101440;28;20302;-73
2022/07/13 02:56:02;;;;;;;7.10;2.80;;;;;;;23.91;54.85;100936.06;2104753;28;20036;-73
2022/07/13 02:57:24;;;;;;;8.55;2.55;;;;;;;23.91;54.77;100939.66;2093529;28;20040;-73
2022/07/13 02:58:50;;;;;;;7.63;2.70;;;;;;;23.91;54.66;100936.06;2091999;28;20072;-72
2022/07/13 03:00:14;;;;;;;6.35;2.63;;;;;;;23.91;54.53;100944.16;2099484;28;20087;-73
2022/07/13 03:01:37;;;;;;;3.70;1.90;;;;;;;23.89;54.57;100930.75;2096441;28;20052;-73
2022/07/13 03:02:58;;;;;;;5.93;2.08;;;;;;;23.90;54.26;100945.09;2101654;28;20127;-72
2022/07/13 03:04:21;;;;;;;4.32;2.40;;;;;;;23.89;54.24;100946.06;2093169;28;20045;-73
2022/07/13 03:05:44;;;;;;;7.20;2.38;;;;;;;23.88;54.56;100931.69;2091461;28;20398;-74
2022/07/13 03:07:05;;;;;;;2.78;1.98;;;;;;;23.88;54.41;100934.38;2099418;28;20051;-74
2022/07/13 03:08:28;;;;;;;5.55;2.50;;;;;;;23.89;54.40;100941.56;2093791;28;20045;-73
2022/07/13 03:09:52;;;;;;;6.40;2.45;;;;;;;23.91;54.48;100933.38;2093599;28;20078;-73
2022/07/13 03:11:14;;;;;;;6.07;2.53;;;;;;;23.91;54.22;100927.97;2098952;28;20043;-73
2022/07/13 03:12:36;;;;;;;7.13;3.72;;;;;;;23.90;54.39;100927.09;2094038;28;20045;-73
2022/07/13 03:14:01;;;;;;;3.85;2.40;;;;;;;23.90;54.10;100929.78;2099018;28;20046;-73
2022/07/13 03:15:25;;;;;;;5.72;2.78;;;;;;;23.91;54.08;100931.56;2102393;28;20052;-73
2022/07/13 03:16:47;;;;;;;6.43;2.63;;;;;;;23.91;54.32;100931.56;2093777;28;20044;-73
2022/07/13 03:18:10;;;;;;;4.78;2.28;;;;;;;23.91;54.32;100931.56;2101574;28;20134;-73
2022/07/13 03:19:33;;;;;;;4.43;1.90;;;;;;;23.90;54.20;100931.59;2101695;28;20053;-73
2022/07/13 03:20:56;;;;;;;4.43;2.00;;;;;;;23.89;54.09;100936.16;2096498;28;20080;-72
2022/07/13 03:22:17;;;;;;;4.25;2.60;;;;;;;23.90;54.24;100928.91;2099289;28;20544;-73
2022/07/13 03:23:40;;;;;;;6.28;2.53;;;;;;;23.91;54.32;100934.25;2104286;28;20052;-73
2022/07/13 03:25:08;;;;;;;6.22;2.45;;;;;;;23.94;54.16;100933.28;2093250;28;20494;-73
2022/07/13 03:26:30;;;;;;;5.78;2.70;;;;;;;23.95;53.93;100935.03;2092400;28;20072;-73
2022/07/13 03:27:52;;;;;;;2.60;2.00;;;;;;;23.97;54.09;100943.94;2098958;28;20480;-73
2022/07/13 03:29:16;;;;;;;3.33;2.15;;;;;;;24.01;54.02;100949.19;2103973;28;20048;-73
2022/07/13 03:30:38;;;;;;;3.55;2.33;;;;;;;24.06;54.00;100949.00;2103492;28;20046;-73
2022/07/13 03:32:02;;;;;;;4.63;3.38;;;;;;;24.10;54.33;100950.63;2103352;28;20044;-74
2022/07/13 03:33:23;;;;;;;5.72;2.38;;;;;;;24.16;54.35;100955.81;2095265;28;20633;-73
2022/07/13 03:34:47;;;;;;;3.88;2.20;;;;;;;24.23;54.47;100949.28;2091965;28;20056;-74
2022/07/13 03:36:12;;;;;;;3.75;2.20;;;;;;;24.30;54.28;100950.81;2095447;28;20048;-73
2022/07/13 03:37:35;;;;;;;4.93;2.13;;;;;;;24.35;54.30;100948.81;2092703;28;20521;-73
2022/07/13 03:38:56;;;;;;;5.05;2.30;;;;;;;24.43;53.90;100956.63;2092292;28;20040;-73
2022/07/13 03:40:20;;;;;;;6.22;2.00;;;;;;;24.50;53.92;100961.72;2092228;28;20048;-73
2022/07/13 03:41:45;;;;;;;5.25;2.17;;;;;;;24.55;54.00;100948.91;2093579;28;20498;-73
2022/07/13 03:43:07;;;;;;;7.10;2.40;;;;;;;24.61;53.55;100954.06;2109070;28;20036;-73
2022/07/13 03:44:30;;;;;;;4.28;2.30;;;;;;;24.68;53.60;100952.00;2106058;28;20047;-73
2022/07/13 03:45:53;;;;;;;9.77;2.17;;;;;;;24.74;53.37;100957.22;2094698;28;20534;-74
2022/07/13 03:47:16;;;;;;;4.55;2.20;;;;;;;24.82;53.17;100954.16;2096915;28;20060;-74
2022/07/13 03:48:37;;;;;;;3.20;1.90;;;;;;;24.88;52.95;100960.19;2100766;28;20493;-73
2022/07/13 03:50:00;;;;;;;2.85;1.90;;;;;;;24.95;52.76;100958.16;2095150;28;20077;-73
2022/07/13 03:51:23;;;;;;;5.88;2.30;;;;;;;25.01;52.92;100961.50;2100837;28;20077;-73
2022/07/13 03:52:44;;;;;;;4.30;1.70;;;;;;;25.10;52.58;100965.66;2095100;28;20059;-73
2022/07/13 03:54:08;;;;;;;4.80;2.13;;;;;;;25.20;52.29;100963.47;2102727;28;20036;-73
2022/07/13 03:55:31;;;;;;;4.35;1.80;;;;;;;25.29;52.37;100963.06;2100352;28;20097;-74
2022/07/13 03:56:54;;;;;;;6.55;2.67;;;;;;;25.38;52.05;100968.97;2109262;28;20459;-73
2022/07/13 03:58:16;;;;;;;4.95;2.08;;;;;;;25.45;51.76;100968.72;2103357;28;20036;-74
2022/07/13 03:59:40;;;;;;;4.65;2.10;;;;;;;25.51;51.71;100963.94;2103397;28;20704;-73
2022/07/13 04:01:02;;;;;;;6.43;2.25;;;;;;;25.60;51.28;100965.41;2092418;28;20090;-74
2022/07/13 04:02:25;;;;;;;4.80;2.25;;;;;;;25.70;51.23;100962.22;2092613;28;20075;-73
2022/07/13 04:03:47;;;;;;;4.68;1.70;;;;;;;25.78;51.25;100972.72;2092133;28;20080;-74
2022/07/13 04:05:09;;;;;;;;;;;;;;;25.84;50.83;100966.16;2095543;28;20044;-74
2022/07/13 04:06:33;;;;;;;5.53;2.08;;;;;;;25.93;50.63;100974.72;2092235;28;19924;-73
2022/07/13 04:07:56;;;;;;;4.32;2.00;;;;;;;26.03;50.45;100965.25;2092141;28;20072;-73
2022/07/13 04:09:20;;;;;;;6.22;2.40;;;;;;;26.13;50.18;100976.53;2092945;28;20506;-73
2022/07/13 04:10:45;;;;;;;6.38;2.20;;;;;;;26.26;49.65;100983.16;2097689;28;20057;-73
2022/07/13 04:12:11;;;;;;;9.88;2.20;;;;;;;26.36;49.46;100971.00;2095208;28;20041;-74
2022/07/13 04:13:34;;;;;;;4.82;1.90;;;;;;;26.48;49.25;100986.66;2095035;28;20048;-73
2022/07/13 04:14:56;;;;;;;5.10;1.88;;;;;;;26.58;49.02;100973.59;2092460;28;20047;-73
2022/07/13 04:16:19;;;;;;;4.78;2.25;;;;;;;26.67;48.81;100969.53;2094146;28;20052;-73
2022/07/13 04:17:42;;;;;;;4.03;2.08;;;;;;;26.72;48.58;100968.34;2095104;28;20052;-74
2022/07/13 04:19:05;;;;;;;5.13;2.15;;;;;;;26.82;48.46;100976.94;2095150;28;20056;-74
2022/07/13 04:20:27;;;;;;;7.00;1.85;;;;;;;26.90;48.25;100967.53;2094823;28;20390;-73
2022/07/13 04:21:49;;;;;;;3.42;1.65;;;;;;;26.98;48.23;100974.41;2086369;28;20577;-73
2022/07/13 04:23:11;;;;;;;9.27;1.92;;;;;;;27.09;48.09;100982.88;2092233;28;20045;-73
2022/07/13 04:24:35;;;;;;;5.22;2.15;;;;;;;27.21;47.81;100975.00;2094624;28;20044;-73
2022/07/13 04:26:00;;;;;;;4.70;1.88;;;;;;;27.33;47.47;100973.50;2094963;28;20107;-73
2022/07/13 04:27:21;;;;;;;3.47;1.80;;;;;;;27.42;47.05;100972.19;2094996;28;20097;-73
2022/07/13 04:28:44;;;;;;;7.15;2.20;;;;;;;27.43;46.76;100976.66;2094343;28;20513;-74
2022/07/13 04:30:10;;;;;;;6.03;2.15;;;;;;;27.51;46.87;100964.44;2095392;28;20090;-73
2022/07/13 04:31:33;;;;;;;3.30;1.75;;;;;;;27.59;46.23;100978.53;2094840;28;20052;-74
2022/07/13 04:32:54;;;;;;;6.22;1.77;;;;;;;27.71;46.18;100983.31;2094451;28;20051;-72
2022/07/13 04:34:18;;;;;;;2.25;1.70;;;;;;;27.80;46.05;100976.53;2094863;28;20076;-73
2022/07/13 04:35:39;;;;;;;3.55;1.60;;;;;;;27.94;45.73;100962.25;2094757;28;20048;-74
2022/07/13 04:37:02;;;;;;;2.58;1.77;;;;;;;28.06;45.55;100965.19;2091363;28;20048;-74
2022/07/13 04:38:26;;;;;;;6.97;1.67;;;;;;;28.22;45.23;100976.13;2092473;28;20052;-73
2022/07/13 04:39:47;;;;;;;5.88;1.77;;;;;;;28.41;44.85;100973.28;2091086;28;20044;-73
2022/07/13 04:41:13;;;;;;;7.47;1.77;;;;;;;28.62;44.55;100969.34;2092085;28;20051;-74
2022/07/13 04:42:35;;;;;;;4.30;1.92;;;;;;;28.81;44.22;100966.53;2092452;28;20445;-73
2022/07/13 04:43:57;;;;;;;5.18;1.60;;;;;;;29.01;43.86;100973.56;2092077;28;20044;-74
2022/07/13 04:45:19;;;;;;;2.78;1.70;;;;;;;29.19;43.39;100973.38;2091955;28;20594;-73
2022/07/13 04:46:44;;;;;;;2.88;1.70;;;;;;;29.41;43.12;100972.09;2098264;28;20047;-74
2022/07/13 04:48:06;;;;;;;2.55;1.77;;;;;;;29.60;42.66;100975.50;2094547;28;20135;-74
2022/07/13 04:49:29;;;;;;;5.13;1.60;;;;;;;29.82;42.65;100980.50;2100019;28;20135;-74
2022/07/13 04:50:52;;;;;;;5.38;1.83;;;;;;;30.01;42.28;100956.66;2094831;28;20518;-73
2022/07/13 04:52:15;;;;;;;5.72;1.65;;;;;;;30.16;41.85;100969.34;2091788;28;20488;-74
2022/07/13 04:53:40;;;;;;;5.88;2.05;;;;;;;30.37;41.41;100978.88;2100860;28;20051;-74
2022/07/13 04:55:09;;;;;;;3.78;1.88;;;;;;;30.60;40.96;100982.00;2095381;28;20060;-73
2022/07/13 04:56:33;;;;;;;6.82;1.63;;;;;;;30.79;40.85;100971.66;2092403;28;20045;-74
2022/07/13 04:57:57;;;;;;;6.43;1.75;;;;;;;30.94;40.33;100981.56;2091704;28;20049;-74
2022/07/13 04:59:21;;;;;;;5.72;1.83;;;;;;;31.06;39.99;100978.06;2095165;28;20091;-74
2022/07/13 05:00:43;;;;;;;4.78;1.70;;;;;;;31.20;39.77;100978.03;2096565;28;20040;-74
2022/07/13 05:02:06;;;;;;;2.65;1.90;;;;;;;31.32;39.50;100986.38;2094341;28;20044;-74
2022/07/13 05:03:30;;;;;;;2.72;1.60;;;;;;;31.46;38.88;100984.47;2092076;28;20110;-74
2022/07/13 05:04:52;;;;;;;5.22;1.67;;;;;;;31.63;38.92;100986.97;2092491;28;20471;-74
2022/07/13 05:06:15;;;;;;;6.80;2.00;;;;;;;31.76;38.37;100976.06;2100034;28;20064;-74
2022/07/13 05:07:39;;;;;;;4.07;1.52;;;;;;;31.91;38.58;100987.75;2102923;28;20394;-74
2022/07/13 05:09:02;;;;;;;7.05;2.58;;;;;;;32.04;38.10;100988.66;2086343;28;20519;-74
2022/07/13 05:10:27;;;;;;;5.10;2.38;;;;;;;32.25;37.90;100987.19;2089778;28;20091;-74
2022/07/13 05:11:52;;;;;;;4.28;1.58;;;;;;;32.50;37.85;100983.56;2092185;28;20048;-74
2022/07/13 05:13:14;;;;;;;10.90;1.83;;;;;;;32.69;37.63;100972.22;2092326;28;20558;-74
2022/07/13 05:14:37;;;;;;;5.75;2.08;;;;;;;32.82;37.49;100993.03;2100046;28;20055;-74
2022/07/13 05:16:00;;;;;;;7.38;2.40;;;;;;;32.91;37.24;100983.28;2094387;28;20043;-74
2022/07/13 05:17:23;;;;;;;4.25;1.73;;;;;;;32.99;37.05;100978.13;2091579;28;20072;-74
2022/07/13 05:18:45;;;;;;;4.90;1.60;;;;;;;32.96;36.92;100992.03;2091206;28;20044;-75
2022/07/13 05:20:13;;;;;;;4.78;2.00;;;;;;;32.83;37.17;100974.78;2093258;28;20055;-74
2022/07/13 05:21:41;;;;;;;3.20;1.75;;;;;;;32.77;36.99;100987.03;2093600;28;20493;-74
2022/07/13 05:23:04;;;;;;;5.80;2.03;;;;;;;32.76;37.02;100978.94;2091361;28;20044;-73
2022/07/13 05:24:28;;;;;;;5.65;1.92;;;;;;;32.72;37.23;100980.16;2092298;28;20115;-74
2022/07/13 05:25:50;;;;;;;5.72;1.58;;;;;;;32.71;37.22;100982.03;2100055;28;20044;-75
2022/07/13 05:27:14;;;;;;;7.60;2.15;;;;;;;32.70;37.03;100982.13;2102436;28;20048;-75
2022/07/13 05:28:37;;;;;;;5.18;1.83;;;;;;;32.72;37.43;100989.25;2094024;28;20445;-73
2022/07/13 05:29:58;;;;;;;4.70;1.83;;;;;;;32.75;36.93;100980.84;2091810;28;20461;-74
2022/07/13 05:31:21;;;;;;;4.75;1.88;;;;;;;32.61;37.39;100993.72;2090877;28;20375;-73
2022/07/13 05:32:43;;;;;;;5.63;1.80;;;;;;;32.57;37.41;100983.97;2091764;28;20052;-73
2022/07/13 05:34:05;;;;;;;3.28;1.80;;;;;;;32.65;37.55;100990.66;2094379;28;20486;-74
2022/07/13 05:35:32;;;;;;;4.32;1.63;;;;;;;32.63;37.18;100986.28;2092564;28;20044;-73
2022/07/13 05:36:55;;;;;;;6.25;2.20;;;;;;;32.62;37.34;100993.63;2091966;28;20048;-74
2022/07/13 05:38:18;;;;;;;7.68;1.83;;;;;;;32.81;37.15;100984.97;2091323;28;20045;-74
2022/07/13 05:39:44;;;;;;;5.97;1.70;;;;;;;32.87;36.77;100998.19;2099333;28;20087;-74
2022/07/13 05:41:06;;;;;;;4.15;1.73;;;;;;;32.95;36.92;100987.53;2100973;28;20135;-73
2022/07/13 05:42:31;;;;;;;8.07;1.80;;;;;;;33.17;36.64;100993.16;2100158;28;20044;-74
2022/07/13 05:43:54;;;;;;;7.30;2.10;;;;;;;33.39;36.61;101005.28;2100298;28;20151;-74
2022/07/13 05:45:18;;;;;;;9.27;2.95;;;;;;;33.13;37.67;101002.63;2102582;28;20375;-74
2022/07/13 05:46:40;;;;;;;4.82;1.85;;;;;;;32.73;38.02;101001.94;2099948;28;20056;-74
2022/07/13 05:48:04;;;;;;;7.72;2.22;;;;;;;32.77;37.95;101000.72;2093984;28;20056;-73
2022/07/13 05:49:25;;;;;;;4.15;1.90;;;;;;;32.79;38.34;100995.16;2091150;28;20059;-74
2022/07/13 05:50:48;;;;;;;6.88;1.65;;;;;;;32.71;38.11;101000.28;2091104;28;20540;-74
2022/07/13 05:52:11;;;;;;;5.38;1.60;;;;;;;32.57;38.40;101000.38;2107929;28;20059;-73
2022/07/13 05:53:35;;;;;;;5.80;1.63;;;;;;;32.46;38.71;101003.91;2096796;28;20045;-73
2022/07/13 05:54:57;;;;;;;6.32;1.85;;;;;;;32.69;38.39;101011.34;2094116;28;20086;-73
2022/07/13 05:56:20;;;;;;;6.20;1.83;;;;;;;32.90;38.06;101011.63;2099627;28;20144;-73
2022/07/13 05:57:44;;;;;;;7.53;1.80;;;;;;;33.07;37.64;101011.28;2102391;28;20040;-73
2022/07/13 05:59:05;;;;;;;5.63;2.20;;;;;;;33.19;37.62;101006.78;2102260;28;20068;-74
2022/07/13 06:00:27;;;;;;;4.85;1.88;;;;;;;33.26;37.27;101010.81;2102130;28;20072;-74
2022/07/13 06:01:50;;;;;;;3.85;1.70;;;;;;;33.31;37.12;101010.44;2094357;28;20048;-74
2022/07/13 06:03:13;;;;;;;7.22;2.00;;;;;;;33.41;36.79;101017.00;2098331;27;20368;-74
2022/07/13 06:04:36;;;;;;;14.13;4.13;;;;;;;33.51;36.78;101013.44;2113814;27;20156;-74
2022/07/13 06:05:57;;;;;;;7.60;1.90;;;;;;;33.65;36.51;101017.84;2100387;28;20040;-74
2022/07/13 06:07:19;;;;;;;5.28;1.88;;;;;;;33.85;36.09;101011.75;2110106;28;20052;-74
2022/07/13 06:08:42;;;;;;;4.63;1.80;;;;;;;34.04;35.95;101013.03;2110384;28;20044;-74
2022/07/13 06:10:05;;;;;;;5.38;1.95;;;;;;;33.96;35.78;101013.63;2109860;28;20495;-74
2022/07/13 06:11:28;;;;;;;5.88;1.90;;;;;;;33.97;35.61;101009.91;2103096;28;20054;-74
2022/07/13 06:12:51;;;;;;;6.95;2.17;;;;;;;33.99;35.83;101002.44;2103499;28;20051;-74
2022/07/13 06:14:14;;;;;;;6.70;1.75;;;;;;;33.91;35.65;101007.66;2104357;28;20071;-74
2022/07/13 06:15:37;;;;;;;4.60;1.60;;;;;;;33.92;35.54;101009.41;2101975;28;20055;-74
2022/07/13 06:17:00;;;;;;;5.55;2.00;;;;;;;33.92;35.35;100996.56;2102060;28;20094;-74
2022/07/13 06:18:21;;;;;;;5.88;1.60;;;;;;;33.99;35.07;100996.97;2102259;28;20048;-74
2022/07/13 06:19:43;;;;;;;2.83;1.52;;;;;;;34.10;35.07;101010.69;2101283;28;20048;-74
2022/07/13 06:21:06;;;;;;;3.17;1.50;;;;;;;34.15;35.10;101002.09;2101649;28;20040;-74
2022/07/13 06:22:28;;;;;;;6.20;1.80;;;;;;;34.32;35.14;101005.31;2102398;28;20104;-74
2022/07/13 06:23:50;;;;;;;7.10;1.90;;;;;;;34.53;34.84;101005.41;2101891;28;20056;-75
2022/07/13 06:25:13;;;;;;;5.20;1.73;;;;;;;34.72;34.63;101004.84;2102252;28;20134;-74
2022/07/13 06:26:36;;;;;;;3.22;1.70;;;;;;;34.68;34.21;101012.41;2093962;28;20139;-74